createdAt,value
2019-04-01T00:02:14.508Z,24.13
2019-04-01T00:07:44.301Z,24.70
2019-04-01T00:13:14.035Z,30.80
2019-04-01T00:18:43.699Z,28.03
2019-04-01T00:24:13.424Z,24.37
2019-04-01T00:29:43.135Z,25.07
2019-04-01T00:35:16.234Z,32.87
2019-04-01T00:40:46.008Z,26.67
2019-04-01T00:46:16.938Z,24.63
2019-04-01T00:51:46.478Z,28.47
2019-04-01T00:57:16.228Z,21.87
2019-04-01T01:02:45.970Z,26.10
2019-04-01T01:08:15.708Z,25.03
2019-04-01T01:13:45.045Z,23.50
2019-04-01T01:19:14.445Z,24.70
2019-04-01T01:24:43.798Z,29.50
2019-04-01T01:30:14.665Z,30.93
2019-04-01T01:35:44.055Z,24.60
2019-04-01T01:41:13.484Z,22.03
2019-04-01T01:46:48.673Z,25.00
2019-04-01T01:52:19.002Z,26.07
2019-04-01T01:57:48.394Z,25.60
2019-04-01T02:03:17.811Z,26.83
2019-04-01T02:08:49.363Z,30.73
2019-04-01T02:14:18.684Z,32.13
2019-04-01T02:19:48.071Z,30.63
2019-04-01T02:25:17.575Z,30.03
2019-04-01T02:30:46.905Z,35.33
2019-04-01T02:36:16.342Z,33.27
2019-04-01T02:41:45.714Z,30.30
2019-04-01T02:47:15.000Z,35.00
2019-04-01T02:52:44.355Z,36.83
2019-04-01T02:58:13.700Z,32.23
2019-04-01T03:03:43.022Z,35.47
2019-04-01T03:09:12.366Z,34.30
2019-04-01T03:14:41.741Z,39.13
2019-04-01T03:20:11.300Z,36.00
2019-04-01T03:25:40.753Z,35.43
2019-04-01T03:31:10.088Z,41.53
2019-04-01T03:36:39.480Z,38.07
2019-04-01T03:42:08.825Z,36.87
2019-04-01T03:47:38.227Z,38.40
2019-04-01T03:53:07.563Z,42.33
2019-04-01T03:58:36.870Z,43.87
2019-04-01T04:04:06.324Z,44.07
2019-04-01T04:09:35.642Z,47.73
2019-04-01T04:15:06.849Z,46.40
2019-04-01T04:20:36.372Z,50.40
2019-04-01T04:26:06.209Z,59.67
2019-04-01T04:31:35.770Z,57.80
2019-04-01T04:37:05.355Z,58.67
2019-04-01T04:42:34.825Z,65.33
2019-04-01T04:48:04.332Z,81.13
2019-04-01T04:53:35.145Z,77.43
2019-04-01T04:59:06.788Z,69.07
2019-04-01T05:04:36.327Z,72.40
2019-04-01T05:10:08.239Z,70.00
2019-04-01T05:15:37.810Z,71.00
2019-04-01T05:21:07.452Z,79.10
2019-04-01T05:26:37.902Z,74.93
2019-04-01T05:32:08.254Z,69.87
2019-04-01T05:37:40.704Z,77.83
2019-04-01T05:43:10.877Z,69.67
2019-04-01T05:48:46.581Z,79.93
2019-04-01T05:54:16.043Z,68.67
2019-04-01T05:59:45.616Z,66.30
2019-04-01T06:05:15.091Z,73.13
2019-04-01T06:10:45.558Z,85.67
2019-04-01T06:16:15.137Z,67.83
2019-04-01T06:21:44.615Z,59.23
2019-04-01T06:27:14.166Z,72.47
2019-04-01T06:32:43.635Z,59.20
2019-04-01T06:38:13.066Z,58.17
2019-04-01T06:43:42.556Z,59.57
2019-04-01T06:49:11.919Z,62.50
2019-04-01T06:54:41.424Z,57.57
2019-04-01T07:00:11.689Z,64.60
2019-04-01T07:05:41.118Z,62.17
2019-04-01T07:11:10.588Z,68.80
2019-04-01T07:16:40.306Z,57.50
2019-04-01T07:22:09.792Z,57.37
2019-04-01T07:27:39.437Z,53.57
2019-04-01T07:33:08.983Z,51.33
2019-04-01T07:38:38.450Z,48.87
2019-04-01T07:44:07.959Z,54.07
2019-04-01T07:49:37.371Z,54.60
2019-04-01T07:55:08.865Z,56.80
2019-04-01T08:00:38.346Z,57.10
2019-04-01T08:06:07.757Z,50.80
2019-04-01T08:11:37.229Z,43.30
2019-04-01T08:17:06.739Z,42.83
2019-04-01T08:22:36.552Z,44.43
2019-04-01T08:28:06.166Z,42.60
2019-04-01T08:33:38.522Z,41.37
2019-04-01T08:39:13.722Z,39.80
2019-04-01T08:44:43.151Z,40.83
2019-04-01T08:50:12.946Z,38.67
2019-04-01T08:55:42.370Z,49.53
2019-04-01T09:01:11.850Z,44.40
2019-04-01T09:06:41.328Z,55.87
2019-04-01T09:12:10.874Z,47.97
2019-04-01T09:17:40.745Z,40.33
2019-04-01T09:23:10.325Z,48.00
2019-04-01T09:28:39.677Z,43.43
2019-04-01T09:34:09.064Z,47.20
2019-04-01T09:39:39.493Z,48.07
2019-04-01T09:45:09.850Z,39.23
2019-04-01T09:50:39.263Z,41.63
2019-04-01T09:56:08.666Z,41.63
2019-04-01T10:01:38.212Z,38.87
2019-04-01T10:07:07.804Z,48.33
2019-04-01T10:12:37.176Z,44.33
2019-04-01T10:18:06.745Z,41.80
2019-04-01T10:23:36.224Z,43.40
2019-04-01T10:29:05.712Z,38.83
2019-04-01T10:34:35.296Z,47.83
2019-04-01T10:40:07.746Z,42.10
2019-04-01T10:45:37.182Z,41.40
2019-04-01T10:51:06.629Z,40.43
2019-04-01T10:56:36.262Z,42.20
2019-04-01T11:02:05.882Z,43.03
2019-04-01T11:07:35.364Z,38.40
2019-04-01T11:13:04.753Z,37.70
2019-04-01T11:18:34.426Z,41.20
2019-04-01T11:24:07.451Z,43.20
2019-04-01T11:29:35.469Z,40.13
2019-04-01T11:35:06.814Z,42.60
2019-04-01T11:40:38.767Z,36.70
2019-04-01T11:46:07.838Z,38.00
2019-04-01T11:51:39.989Z,38.37
2019-04-01T11:57:08.657Z,34.37
2019-04-01T12:02:38.053Z,38.70
2019-04-01T12:08:07.445Z,36.57
2019-04-01T12:13:36.865Z,43.77
2019-04-01T12:19:06.275Z,31.37
2019-04-01T12:24:35.752Z,31.60
2019-04-01T12:30:06.470Z,31.23
2019-04-01T12:35:36.980Z,34.93
2019-04-01T12:41:06.460Z,35.50
2019-04-01T12:46:36.174Z,34.23
2019-04-01T12:52:05.739Z,31.33
2019-04-01T12:57:35.124Z,33.53
2019-04-01T13:03:04.778Z,30.70
2019-04-01T13:08:34.260Z,28.27
2019-04-01T13:14:04.597Z,32.13
2019-04-01T13:19:33.924Z,32.70
2019-04-01T13:25:05.622Z,31.53
2019-04-01T13:30:34.543Z,36.80
2019-04-01T13:36:07.580Z,34.77
2019-04-01T13:41:42.366Z,27.90
2019-04-01T13:47:06.530Z,27.60
2019-04-01T13:52:35.879Z,26.13
2019-04-01T13:58:05.572Z,32.23
2019-04-01T14:03:35.200Z,26.27
2019-04-01T14:09:07.384Z,28.77
2019-04-01T14:14:37.080Z,30.87
2019-04-01T14:20:07.147Z,25.80
2019-04-01T14:25:37.526Z,28.50
2019-04-01T14:31:06.946Z,24.30
2019-04-01T14:36:37.911Z,22.50
2019-04-01T14:42:08.732Z,22.83
2019-04-01T14:47:55.631Z,22.93
2019-04-01T14:53:10.160Z,23.20
2019-04-01T14:58:39.838Z,19.23
2019-04-01T15:04:09.177Z,20.33
2019-04-01T15:09:38.658Z,22.07
2019-04-01T15:15:09.377Z,22.70
2019-04-01T15:20:38.927Z,20.70
2019-04-01T15:26:08.635Z,24.20
2019-04-01T15:31:38.252Z,20.63
2019-04-01T15:37:08.094Z,21.33
2019-04-01T15:42:38.933Z,30.63
2019-04-01T15:48:09.357Z,25.60
2019-04-01T15:54:01.348Z,20.67
2019-04-01T15:59:31.596Z,24.23
2019-04-01T16:05:01.769Z,23.37
2019-04-01T16:10:31.291Z,21.93
2019-04-01T16:16:01.207Z,24.23
2019-04-01T16:21:31.493Z,31.03
2019-04-01T16:27:01.503Z,22.17
2019-04-01T16:32:31.476Z,23.13
2019-04-01T16:38:01.053Z,26.17
2019-04-01T16:43:31.537Z,32.10
2019-04-01T16:49:02.274Z,26.70
2019-04-01T16:54:34.996Z,28.63
2019-04-01T17:00:17.505Z,26.37
2019-04-01T17:05:47.279Z,23.40
2019-04-01T17:11:18.161Z,28.00
2019-04-01T17:16:47.701Z,27.93
2019-04-01T17:22:17.409Z,23.97
2019-04-01T17:27:46.859Z,25.00
2019-04-01T17:33:17.364Z,26.57
2019-04-01T17:38:48.286Z,28.83
2019-04-01T17:44:18.431Z,34.23
2019-04-01T17:49:50.412Z,33.40
2019-04-01T17:55:21.709Z,33.90
2019-04-01T18:00:53.527Z,25.80
2019-04-01T18:06:23.071Z,27.97
2019-04-01T18:11:52.968Z,31.93
2019-04-01T18:17:22.512Z,33.30
2019-04-01T18:22:52.257Z,28.93
2019-04-01T18:28:21.785Z,34.20
2019-04-01T18:33:56.335Z,32.27
2019-04-01T18:39:48.438Z,37.43
2019-04-01T18:45:18.417Z,34.03
2019-04-01T18:50:50.170Z,31.57
2019-04-01T18:56:21.378Z,34.83
2019-04-01T19:01:51.417Z,42.53
2019-04-01T19:07:22.356Z,31.23
2019-04-01T19:13:04.706Z,28.93
2019-04-01T19:18:41.900Z,28.40
2019-04-01T19:24:11.274Z,35.03
2019-04-01T19:29:42.876Z,26.90
2019-04-01T19:35:12.488Z,30.07
2019-04-01T19:40:41.799Z,33.60
2019-04-01T19:46:12.037Z,26.97
2019-04-01T19:51:41.336Z,34.83
2019-04-01T19:57:13.295Z,25.37
2019-04-01T20:03:02.245Z,28.93
2019-04-01T20:08:31.700Z,33.63
2019-04-01T20:14:01.782Z,31.53
2019-04-01T20:19:31.500Z,42.70
2019-04-01T20:25:01.029Z,37.03
2019-04-01T20:30:30.666Z,26.90
2019-04-01T20:36:00.174Z,28.57
2019-04-01T20:41:29.847Z,30.43
2019-04-01T20:47:00.444Z,26.23
2019-04-01T20:52:30.309Z,29.90
2019-04-01T20:58:00.289Z,30.60
2019-04-01T21:03:30.296Z,30.33
2019-04-01T21:09:00.200Z,21.60
2019-04-01T21:14:29.875Z,23.50
2019-04-01T21:19:59.405Z,24.37
2019-04-01T21:25:30.039Z,27.63
2019-04-01T21:31:00.900Z,25.60
2019-04-01T21:36:32.151Z,32.97
2019-04-01T21:42:01.644Z,28.40
2019-04-01T21:47:31.157Z,41.47
2019-04-01T21:53:01.225Z,27.10
2019-04-01T21:58:31.533Z,25.53
2019-04-01T22:04:01.072Z,25.87
2019-04-01T22:09:30.795Z,30.77
2019-04-01T22:15:00.387Z,31.20
2019-04-01T22:20:29.918Z,34.10
2019-04-01T22:25:59.518Z,29.63
2019-04-01T22:31:29.069Z,44.80
2019-04-01T22:36:58.447Z,30.03
2019-04-01T22:42:27.850Z,28.30
2019-04-01T22:47:57.332Z,31.20
2019-04-01T22:53:26.902Z,25.80
2019-04-01T22:58:56.423Z,28.80
2019-04-01T23:04:26.045Z,25.97
2019-04-01T23:09:55.474Z,28.53
2019-04-01T23:15:25.006Z,30.40
2019-04-01T23:20:54.632Z,22.43
2019-04-01T23:26:24.054Z,26.73
2019-04-01T23:31:59.398Z,33.10
2019-04-01T23:37:29.032Z,25.87
2019-04-01T23:42:58.560Z,29.70
2019-04-01T23:48:28.202Z,28.43
2019-04-01T23:53:57.708Z,31.77
2019-04-01T23:59:27.131Z,31.27
